sensor_id;sensor_type;location;lat;lon;timestamp;P1;durP1;ratioP1;P2;durP2;ratioP2
33993;SDS011;20673;48.980;8.138;2023-06-14T00:02:00;6.55;;;4.40;;
33993;SDS011;20673;48.980;8.138;2023-06-14T00:04:26;6.45;;;4.58;;
33993;SDS011;20673;48.980;8.138;2023-06-14T00:06:53;7.83;;;4.60;;
33993;SDS011;20673;48.980;8.138;2023-06-14T00:09:21;6.20;;;5.03;;
33993;SDS011;20673;48.980;8.138;2023-06-14T00:11:47;7.15;;;4.15;;
33993;SDS011;20673;48.980;8.138;2023-06-14T00:14:13;6.75;;;4.85;;
33993;SDS011;20673;48.980;8.138;2023-06-14T00:16:39;6.47;;;4.40;;
33993;SDS011;20673;48.980;8.138;2023-06-14T00:19:10;6.07;;;4.60;;
33993;SDS011;20673;48.980;8.138;2023-06-14T00:21:37;6.55;;;5.00;;
33993;SDS011;20673;48.980;8.138;2023-06-14T00:24:04;5.90;;;4.40;;
33993;SDS011;20673;48.980;8.138;2023-06-14T00:26:30;5.80;;;4.70;;
33993;SDS011;20673;48.980;8.138;2023-06-14T00:28:56;6.80;;;5.08;;
33993;SDS011;20673;48.980;8.138;2023-06-14T00:31:22;7.33;;;4.90;;
33993;SDS011;20673;48.980;8.138;2023-06-14T00:33:49;5.12;;;4.17;;
33993;SDS011;20673;48.980;8.138;2023-06-14T00:36:15;6.33;;;5.23;;
33993;SDS011;20673;48.980;8.138;2023-06-14T00:38:41;6.83;;;5.20;;
33993;SDS011;20673;48.980;8.138;2023-06-14T00:41:07;6.77;;;4.67;;
33993;SDS011;20673;48.980;8.138;2023-06-14T00:43:33;7.90;;;4.83;;
33993;SDS011;20673;48.980;8.138;2023-06-14T00:46:00;6.70;;;4.27;;
33993;SDS011;20673;48.980;8.138;2023-06-14T00:48:26;6.13;;;4.97;;
33993;SDS011;20673;48.980;8.138;2023-06-14T00:50:54;5.67;;;4.63;;
33993;SDS011;20673;48.980;8.138;2023-06-14T00:53:21;5.93;;;5.30;;
33993;SDS011;20673;48.980;8.138;2023-06-14T00:55:48;5.60;;;4.60;;
33993;SDS011;20673;48.980;8.138;2023-06-14T00:58:14;6.30;;;4.97;;
33993;SDS011;20673;48.980;8.138;2023-06-14T01:00:41;5.53;;;4.73;;
33993;SDS011;20673;48.980;8.138;2023-06-14T01:03:08;8.83;;;5.10;;
33993;SDS011;20673;48.980;8.138;2023-06-14T01:05:36;6.30;;;4.73;;
33993;SDS011;20673;48.980;8.138;2023-06-14T01:08:14;8.17;;;4.93;;
33993;SDS011;20673;48.980;8.138;2023-06-14T01:13:42;6.07;;;4.90;;
33993;SDS011;20673;48.980;8.138;2023-06-14T01:16:11;9.23;;;5.40;;
33993;SDS011;20673;48.980;8.138;2023-06-14T01:18:39;6.50;;;4.80;;
33993;SDS011;20673;48.980;8.138;2023-06-14T01:21:19;6.23;;;5.07;;
33993;SDS011;20673;48.980;8.138;2023-06-14T01:23:50;5.50;;;4.80;;
33993;SDS011;20673;48.980;8.138;2023-06-14T01:26:22;6.17;;;4.87;;
33993;SDS011;20673;48.980;8.138;2023-06-14T01:28:49;9.23;;;5.60;;
33993;SDS011;20673;48.980;8.138;2023-06-14T01:31:19;6.63;;;4.63;;
33993;SDS011;20673;48.980;8.138;2023-06-14T01:33:47;5.47;;;4.87;;
33993;SDS011;20673;48.980;8.138;2023-06-14T01:36:19;9.30;;;5.50;;
33993;SDS011;20673;48.980;8.138;2023-06-14T01:38:48;6.83;;;5.60;;
33993;SDS011;20673;48.980;8.138;2023-06-14T01:41:16;6.90;;;5.23;;
33993;SDS011;20673;48.980;8.138;2023-06-14T01:43:45;7.70;;;4.50;;
33993;SDS011;20673;48.980;8.138;2023-06-14T01:46:14;7.57;;;4.53;;
33993;SDS011;20673;48.980;8.138;2023-06-14T01:48:41;6.00;;;4.70;;
33993;SDS011;20673;48.980;8.138;2023-06-14T01:51:08;6.70;;;5.57;;
33993;SDS011;20673;48.980;8.138;2023-06-14T01:53:34;8.33;;;5.30;;
33993;SDS011;20673;48.980;8.138;2023-06-14T01:56:00;5.80;;;4.93;;
33993;SDS011;20673;48.980;8.138;2023-06-14T01:58:26;6.83;;;4.77;;
33993;SDS011;20673;48.980;8.138;2023-06-14T02:00:52;7.73;;;5.07;;
33993;SDS011;20673;48.980;8.138;2023-06-14T02:03:20;5.50;;;4.67;;
33993;SDS011;20673;48.980;8.138;2023-06-14T02:05:47;6.77;;;4.90;;
33993;SDS011;20673;48.980;8.138;2023-06-14T02:08:13;7.27;;;4.87;;
33993;SDS011;20673;48.980;8.138;2023-06-14T02:10:39;8.50;;;4.83;;
33993;SDS011;20673;48.980;8.138;2023-06-14T02:13:05;7.97;;;5.13;;
33993;SDS011;20673;48.980;8.138;2023-06-14T02:15:31;6.27;;;5.07;;
33993;SDS011;20673;48.980;8.138;2023-06-14T02:18:00;6.10;;;5.20;;
33993;SDS011;20673;48.980;8.138;2023-06-14T02:20:28;6.10;;;4.77;;
33993;SDS011;20673;48.980;8.138;2023-06-14T02:22:54;6.97;;;4.93;;
33993;SDS011;20673;48.980;8.138;2023-06-14T02:25:21;5.90;;;4.70;;
33993;SDS011;20673;48.980;8.138;2023-06-14T02:27:47;6.13;;;5.13;;
33993;SDS011;20673;48.980;8.138;2023-06-14T02:30:13;7.50;;;5.27;;
33993;SDS011;20673;48.980;8.138;2023-06-14T02:32:40;6.23;;;4.50;;
33993;SDS011;20673;48.980;8.138;2023-06-14T02:35:08;5.87;;;5.27;;
33993;SDS011;20673;48.980;8.138;2023-06-14T02:37:34;7.67;;;5.07;;
33993;SDS011;20673;48.980;8.138;2023-06-14T02:40:01;7.47;;;4.87;;
33993;SDS011;20673;48.980;8.138;2023-06-14T02:42:27;6.50;;;5.03;;
33993;SDS011;20673;48.980;8.138;2023-06-14T02:44:53;5.27;;;4.23;;
33993;SDS011;20673;48.980;8.138;2023-06-14T02:47:19;8.23;;;5.43;;
33993;SDS011;20673;48.980;8.138;2023-06-14T02:49:45;7.10;;;4.80;;
33993;SDS011;20673;48.980;8.138;2023-06-14T02:52:12;5.33;;;4.63;;
33993;SDS011;20673;48.980;8.138;2023-06-14T02:54:38;6.80;;;5.40;;
33993;SDS011;20673;48.980;8.138;2023-06-14T02:57:05;8.33;;;4.80;;
33993;SDS011;20673;48.980;8.138;2023-06-14T02:59:33;7.50;;;4.80;;
33993;SDS011;20673;48.980;8.138;2023-06-14T03:02:00;5.55;;;4.55;;
33993;SDS011;20673;48.980;8.138;2023-06-14T03:04:26;6.25;;;5.35;;
33993;SDS011;20673;48.980;8.138;2023-06-14T03:06:54;6.22;;;5.03;;
33993;SDS011;20673;48.980;8.138;2023-06-14T03:09:21;10.63;;;4.80;;
33993;SDS011;20673;48.980;8.138;2023-06-14T03:11:47;7.42;;;5.08;;
33993;SDS011;20673;48.980;8.138;2023-06-14T03:14:13;7.63;;;4.97;;
33993;SDS011;20673;48.980;8.138;2023-06-14T03:16:40;8.70;;;5.30;;
33993;SDS011;20673;48.980;8.138;2023-06-14T03:19:06;7.20;;;4.95;;
33993;SDS011;20673;48.980;8.138;2023-06-14T03:21:32;9.40;;;5.50;;
33993;SDS011;20673;48.980;8.138;2023-06-14T03:24:00;6.80;;;4.70;;
33993;SDS011;20673;48.980;8.138;2023-06-14T03:26:27;8.13;;;5.08;;
33993;SDS011;20673;48.980;8.138;2023-06-14T03:28:53;6.25;;;5.28;;
33993;SDS011;20673;48.980;8.138;2023-06-14T03:31:19;6.95;;;5.12;;
33993;SDS011;20673;48.980;8.138;2023-06-14T03:33:46;5.63;;;5.07;;
33993;SDS011;20673;48.980;8.138;2023-06-14T03:36:12;7.53;;;5.37;;
33993;SDS011;20673;48.980;8.138;2023-06-14T03:38:38;5.67;;;4.90;;
33993;SDS011;20673;48.980;8.138;2023-06-14T03:41:05;6.28;;;5.12;;
33993;SDS011;20673;48.980;8.138;2023-06-14T03:43:31;5.37;;;4.58;;
33993;SDS011;20673;48.980;8.138;2023-06-14T03:45:58;8.18;;;5.37;;
33993;SDS011;20673;48.980;8.138;2023-06-14T03:48:25;6.17;;;4.35;;
33993;SDS011;20673;48.980;8.138;2023-06-14T03:50:51;5.95;;;4.53;;
33993;SDS011;20673;48.980;8.138;2023-06-14T03:53:17;7.37;;;5.22;;
33993;SDS011;20673;48.980;8.138;2023-06-14T03:55:45;6.22;;;4.87;;
33993;SDS011;20673;48.980;8.138;2023-06-14T03:58:11;7.95;;;5.28;;
33993;SDS011;20673;48.980;8.138;2023-06-14T04:00:38;6.28;;;5.25;;
33993;SDS011;20673;48.980;8.138;2023-06-14T04:03:05;6.22;;;4.75;;
33993;SDS011;20673;48.980;8.138;2023-06-14T04:05:31;6.72;;;5.17;;
33993;SDS011;20673;48.980;8.138;2023-06-14T04:07:57;6.10;;;5.37;;
33993;SDS011;20673;48.980;8.138;2023-06-14T04:10:25;5.20;;;4.70;;
33993;SDS011;20673;48.980;8.138;2023-06-14T04:12:51;6.55;;;5.10;;
33993;SDS011;20673;48.980;8.138;2023-06-14T04:15:18;8.03;;;5.40;;
33993;SDS011;20673;48.980;8.138;2023-06-14T04:17:44;7.20;;;4.78;;
33993;SDS011;20673;48.980;8.138;2023-06-14T04:20:10;6.42;;;5.58;;
33993;SDS011;20673;48.980;8.138;2023-06-14T04:22:36;5.67;;;4.75;;
33993;SDS011;20673;48.980;8.138;2023-06-14T04:25:02;6.30;;;5.22;;
33993;SDS011;20673;48.980;8.138;2023-06-14T04:27:31;6.75;;;5.20;;
33993;SDS011;20673;48.980;8.138;2023-06-14T04:29:59;8.88;;;5.58;;
33993;SDS011;20673;48.980;8.138;2023-06-14T04:32:27;8.88;;;4.97;;
33993;SDS011;20673;48.980;8.138;2023-06-14T04:34:59;6.23;;;5.20;;
33993;SDS011;20673;48.980;8.138;2023-06-14T04:37:27;6.10;;;4.95;;
33993;SDS011;20673;48.980;8.138;2023-06-14T04:39:55;6.20;;;4.80;;
33993;SDS011;20673;48.980;8.138;2023-06-14T04:42:22;7.90;;;5.17;;
33993;SDS011;20673;48.980;8.138;2023-06-14T04:44:54;6.15;;;5.33;;
33993;SDS011;20673;48.980;8.138;2023-06-14T04:47:21;8.10;;;5.35;;
33993;SDS011;20673;48.980;8.138;2023-06-14T04:49:47;8.50;;;5.22;;
33993;SDS011;20673;48.980;8.138;2023-06-14T04:52:13;5.30;;;4.80;;
33993;SDS011;20673;48.980;8.138;2023-06-14T04:54:40;6.55;;;5.08;;
33993;SDS011;20673;48.980;8.138;2023-06-14T04:57:07;5.85;;;4.90;;
33993;SDS011;20673;48.980;8.138;2023-06-14T04:59:41;7.50;;;4.90;;
33993;SDS011;20673;48.980;8.138;2023-06-14T05:02:10;5.30;;;4.73;;
33993;SDS011;20673;48.980;8.138;2023-06-14T05:04:37;6.87;;;4.92;;
33993;SDS011;20673;48.980;8.138;2023-06-14T05:07:08;6.87;;;5.23;;
33993;SDS011;20673;48.980;8.138;2023-06-14T05:09:35;6.73;;;5.50;;
33993;SDS011;20673;48.980;8.138;2023-06-14T05:12:01;6.17;;;5.10;;
33993;SDS011;20673;48.980;8.138;2023-06-14T05:14:28;8.93;;;5.73;;
33993;SDS011;20673;48.980;8.138;2023-06-14T05:16:54;6.47;;;5.47;;
33993;SDS011;20673;48.980;8.138;2023-06-14T05:19:21;10.60;;;5.63;;
33993;SDS011;20673;48.980;8.138;2023-06-14T05:21:47;8.83;;;5.53;;
33993;SDS011;20673;48.980;8.138;2023-06-14T05:24:14;6.00;;;5.27;;
33993;SDS011;20673;48.980;8.138;2023-06-14T05:26:40;8.53;;;4.97;;
33993;SDS011;20673;48.980;8.138;2023-06-14T05:29:06;7.00;;;5.63;;
33993;SDS011;20673;48.980;8.138;2023-06-14T05:31:32;6.77;;;4.97;;
33993;SDS011;20673;48.980;8.138;2023-06-14T05:33:58;8.57;;;5.33;;
33993;SDS011;20673;48.980;8.138;2023-06-14T05:36:25;6.87;;;5.20;;
33993;SDS011;20673;48.980;8.138;2023-06-14T05:38:53;6.90;;;5.47;;
33993;SDS011;20673;48.980;8.138;2023-06-14T05:41:26;7.60;;;5.30;;
33993;SDS011;20673;48.980;8.138;2023-06-14T05:43:53;9.57;;;5.27;;
33993;SDS011;20673;48.980;8.138;2023-06-14T05:46:21;7.20;;;5.27;;
33993;SDS011;20673;48.980;8.138;2023-06-14T05:48:53;9.40;;;5.53;;
33993;SDS011;20673;48.980;8.138;2023-06-14T05:51:20;6.80;;;5.77;;
33993;SDS011;20673;48.980;8.138;2023-06-14T05:53:50;5.70;;;5.08;;
33993;SDS011;20673;48.980;8.138;2023-06-14T05:56:17;7.62;;;5.72;;
33993;SDS011;20673;48.980;8.138;2023-06-14T05:58:44;6.70;;;4.93;;
33993;SDS011;20673;48.980;8.138;2023-06-14T06:01:11;7.05;;;5.25;;
33993;SDS011;20673;48.980;8.138;2023-06-14T06:03:38;7.92;;;5.50;;
33993;SDS011;20673;48.980;8.138;2023-06-14T06:06:05;8.68;;;5.00;;
33993;SDS011;20673;48.980;8.138;2023-06-14T06:08:31;7.90;;;5.47;;
33993;SDS011;20673;48.980;8.138;2023-06-14T06:10:58;7.30;;;5.47;;
33993;SDS011;20673;48.980;8.138;2023-06-14T06:13:25;6.40;;;5.10;;
33993;SDS011;20673;48.980;8.138;2023-06-14T06:15:51;5.90;;;5.37;;
33993;SDS011;20673;48.980;8.138;2023-06-14T06:18:17;7.90;;;5.20;;
33993;SDS011;20673;48.980;8.138;2023-06-14T06:20:43;10.05;;;5.00;;
33993;SDS011;20673;48.980;8.138;2023-06-14T06:23:10;7.63;;;5.00;;
33993;SDS011;20673;48.980;8.138;2023-06-14T06:25:36;4.93;;;4.43;;
33993;SDS011;20673;48.980;8.138;2023-06-14T06:28:02;8.47;;;4.83;;
33993;SDS011;20673;48.980;8.138;2023-06-14T06:30:29;6.87;;;4.40;;
33993;SDS011;20673;48.980;8.138;2023-06-14T06:32:55;6.30;;;4.57;;
33993;SDS011;20673;48.980;8.138;2023-06-14T06:35:21;7.83;;;5.35;;
33993;SDS011;20673;48.980;8.138;2023-06-14T06:37:47;6.73;;;4.97;;
33993;SDS011;20673;48.980;8.138;2023-06-14T06:40:13;7.03;;;5.27;;
33993;SDS011;20673;48.980;8.138;2023-06-14T06:42:39;6.03;;;4.77;;
33993;SDS011;20673;48.980;8.138;2023-06-14T06:45:05;9.65;;;5.50;;
33993;SDS011;20673;48.980;8.138;2023-06-14T06:47:32;5.53;;;5.03;;
33993;SDS011;20673;48.980;8.138;2023-06-14T06:49:58;8.18;;;4.85;;
33993;SDS011;20673;48.980;8.138;2023-06-14T06:52:25;10.10;;;5.72;;
33993;SDS011;20673;48.980;8.138;2023-06-14T06:54:51;7.62;;;5.25;;
33993;SDS011;20673;48.980;8.138;2023-06-14T06:57:19;10.10;;;5.53;;
33993;SDS011;20673;48.980;8.138;2023-06-14T06:59:45;7.62;;;5.00;;
33993;SDS011;20673;48.980;8.138;2023-06-14T07:02:11;7.10;;;5.15;;
33993;SDS011;20673;48.980;8.138;2023-06-14T07:04:37;8.23;;;5.83;;
33993;SDS011;20673;48.980;8.138;2023-06-14T07:07:03;7.78;;;5.60;;
33993;SDS011;20673;48.980;8.138;2023-06-14T07:09:29;9.55;;;5.28;;
33993;SDS011;20673;48.980;8.138;2023-06-14T07:11:55;9.08;;;5.22;;
33993;SDS011;20673;48.980;8.138;2023-06-14T07:14:22;8.90;;;5.15;;
33993;SDS011;20673;48.980;8.138;2023-06-14T07:16:48;6.78;;;4.62;;
33993;SDS011;20673;48.980;8.138;2023-06-14T07:19:14;6.95;;;5.30;;
33993;SDS011;20673;48.980;8.138;2023-06-14T07:21:41;9.85;;;4.78;;
33993;SDS011;20673;48.980;8.138;2023-06-14T07:24:07;6.47;;;5.20;;
33993;SDS011;20673;48.980;8.138;2023-06-14T07:26:33;6.42;;;5.67;;
33993;SDS011;20673;48.980;8.138;2023-06-14T07:29:00;5.67;;;4.62;;
33993;SDS011;20673;48.980;8.138;2023-06-14T07:31:27;5.25;;;4.65;;
33993;SDS011;20673;48.980;8.138;2023-06-14T07:33:53;5.67;;;4.70;;
33993;SDS011;20673;48.980;8.138;2023-06-14T07:36:20;8.48;;;5.20;;
33993;SDS011;20673;48.980;8.138;2023-06-14T07:38:46;11.10;;;5.42;;
33993;SDS011;20673;48.980;8.138;2023-06-14T07:41:12;6.37;;;4.75;;
33993;SDS011;20673;48.980;8.138;2023-06-14T07:43:38;7.15;;;5.08;;
33993;SDS011;20673;48.980;8.138;2023-06-14T07:46:04;10.75;;;5.50;;
33993;SDS011;20673;48.980;8.138;2023-06-14T07:48:31;6.33;;;5.12;;
33993;SDS011;20673;48.980;8.138;2023-06-14T07:50:57;7.97;;;5.10;;
33993;SDS011;20673;48.980;8.138;2023-06-14T07:53:23;6.15;;;4.75;;
33993;SDS011;20673;48.980;8.138;2023-06-14T07:55:49;10.78;;;5.47;;
33993;SDS011;20673;48.980;8.138;2023-06-14T07:58:16;6.20;;;4.62;;
33993;SDS011;20673;48.980;8.138;2023-06-14T08:00:42;7.47;;;5.05;;
33993;SDS011;20673;48.980;8.138;2023-06-14T08:03:08;6.90;;;4.75;;
33993;SDS011;20673;48.980;8.138;2023-06-14T08:05:35;5.47;;;4.87;;
33993;SDS011;20673;48.980;8.138;2023-06-14T08:08:01;8.28;;;4.95;;
33993;SDS011;20673;48.980;8.138;2023-06-14T08:10:27;7.65;;;5.22;;
33993;SDS011;20673;48.980;8.138;2023-06-14T08:12:53;9.18;;;5.25;;
33993;SDS011;20673;48.980;8.138;2023-06-14T08:15:19;9.60;;;5.15;;
33993;SDS011;20673;48.980;8.138;2023-06-14T08:17:46;5.25;;;4.45;;
33993;SDS011;20673;48.980;8.138;2023-06-14T08:20:12;7.67;;;5.03;;
33993;SDS011;20673;48.980;8.138;2023-06-14T08:22:39;8.55;;;4.62;;
33993;SDS011;20673;48.980;8.138;2023-06-14T08:25:07;7.67;;;4.60;;
33993;SDS011;20673;48.980;8.138;2023-06-14T08:27:34;7.72;;;5.05;;
33993;SDS011;20673;48.980;8.138;2023-06-14T08:30:01;7.25;;;4.55;;
33993;SDS011;20673;48.980;8.138;2023-06-14T08:32:28;7.37;;;5.08;;
33993;SDS011;20673;48.980;8.138;2023-06-14T08:34:55;8.93;;;5.35;;
33993;SDS011;20673;48.980;8.138;2023-06-14T08:37:21;8.40;;;5.00;;
33993;SDS011;20673;48.980;8.138;2023-06-14T08:39:47;7.30;;;4.45;;
33993;SDS011;20673;48.980;8.138;2023-06-14T08:42:14;8.75;;;4.83;;
33993;SDS011;20673;48.980;8.138;2023-06-14T08:44:42;7.20;;;4.65;;
33993;SDS011;20673;48.980;8.138;2023-06-14T08:47:09;6.95;;;4.67;;
33993;SDS011;20673;48.980;8.138;2023-06-14T08:49:37;4.58;;;4.12;;
33993;SDS011;20673;48.980;8.138;2023-06-14T08:52:06;6.05;;;4.40;;
33993;SDS011;20673;48.980;8.138;2023-06-14T08:54:36;8.13;;;5.15;;
33993;SDS011;20673;48.980;8.138;2023-06-14T08:57:05;5.12;;;4.33;;
33993;SDS011;20673;48.980;8.138;2023-06-14T08:59:33;8.30;;;4.83;;
33993;SDS011;20673;48.980;8.138;2023-06-14T09:02:02;6.03;;;4.47;;
33993;SDS011;20673;48.980;8.138;2023-06-14T09:04:29;6.70;;;4.70;;
33993;SDS011;20673;48.980;8.138;2023-06-14T09:06:55;6.35;;;4.20;;
33993;SDS011;20673;48.980;8.138;2023-06-14T09:09:22;4.87;;;4.37;;
33993;SDS011;20673;48.980;8.138;2023-06-14T09:11:51;7.97;;;4.45;;
33993;SDS011;20673;48.980;8.138;2023-06-14T09:14:18;6.67;;;4.62;;
33993;SDS011;20673;48.980;8.138;2023-06-14T09:16:45;10.53;;;4.70;;
33993;SDS011;20673;48.980;8.138;2023-06-14T09:19:23;6.03;;;4.53;;
33993;SDS011;20673;48.980;8.138;2023-06-14T09:21:51;4.62;;;3.92;;
33993;SDS011;20673;48.980;8.138;2023-06-14T09:24:18;5.20;;;4.20;;
33993;SDS011;20673;48.980;8.138;2023-06-14T09:26:48;5.58;;;4.70;;
33993;SDS011;20673;48.980;8.138;2023-06-14T09:29:17;9.10;;;4.65;;
33993;SDS011;20673;48.980;8.138;2023-06-14T09:31:45;7.53;;;4.72;;
33993;SDS011;20673;48.980;8.138;2023-06-14T09:34:12;6.12;;;4.60;;
33993;SDS011;20673;48.980;8.138;2023-06-14T09:36:39;7.58;;;4.70;;
33993;SDS011;20673;48.980;8.138;2023-06-14T09:39:07;7.50;;;4.92;;
33993;SDS011;20673;48.980;8.138;2023-06-14T09:41:34;8.03;;;4.67;;
33993;SDS011;20673;48.980;8.138;2023-06-14T09:44:04;8.03;;;4.47;;
33993;SDS011;20673;48.980;8.138;2023-06-14T09:46:33;8.43;;;4.50;;
33993;SDS011;20673;48.980;8.138;2023-06-14T09:49:00;8.05;;;4.60;;
33993;SDS011;20673;48.980;8.138;2023-06-14T09:51:28;9.00;;;4.40;;
33993;SDS011;20673;48.980;8.138;2023-06-14T09:53:58;6.92;;;4.90;;
33993;SDS011;20673;48.980;8.138;2023-06-14T09:56:31;5.08;;;3.98;;
33993;SDS011;20673;48.980;8.138;2023-06-14T09:59:10;6.08;;;4.45;;
33993;SDS011;20673;48.980;8.138;2023-06-14T10:01:41;8.70;;;4.33;;
33993;SDS011;20673;48.980;8.138;2023-06-14T10:04:09;7.15;;;4.42;;
33993;SDS011;20673;48.980;8.138;2023-06-14T10:06:39;6.78;;;4.00;;
33993;SDS011;20673;48.980;8.138;2023-06-14T10:09:08;10.90;;;4.33;;
33993;SDS011;20673;48.980;8.138;2023-06-14T10:11:36;5.95;;;4.45;;
33993;SDS011;20673;48.980;8.138;2023-06-14T10:14:05;7.65;;;4.33;;
33993;SDS011;20673;48.980;8.138;2023-06-14T10:16:33;5.05;;;4.20;;
33993;SDS011;20673;48.980;8.138;2023-06-14T10:19:20;5.83;;;4.20;;
33993;SDS011;20673;48.980;8.138;2023-06-14T10:22:04;4.92;;;4.20;;
33993;SDS011;20673;48.980;8.138;2023-06-14T10:24:38;6.47;;;3.90;;
33993;SDS011;20673;48.980;8.138;2023-06-14T10:27:11;5.22;;;3.65;;
33993;SDS011;20673;48.980;8.138;2023-06-14T10:32:25;4.28;;;3.72;;
33993;SDS011;20673;48.980;8.138;2023-06-14T10:34:54;7.37;;;4.20;;
33993;SDS011;20673;48.980;8.138;2023-06-14T10:37:22;5.17;;;3.90;;
33993;SDS011;20673;48.980;8.138;2023-06-14T10:39:52;9.93;;;4.17;;
33993;SDS011;20673;48.980;8.138;2023-06-14T10:42:20;4.60;;;3.60;;
33993;SDS011;20673;48.980;8.138;2023-06-14T10:50:09;9.58;;;4.60;;
33993;SDS011;20673;48.980;8.138;2023-06-14T10:52:39;4.92;;;4.17;;
33993;SDS011;20673;48.980;8.138;2023-06-14T10:55:09;6.72;;;4.22;;
33993;SDS011;20673;48.980;8.138;2023-06-14T10:57:44;7.55;;;3.83;;
33993;SDS011;20673;48.980;8.138;2023-06-14T11:00:14;9.83;;;4.10;;
33993;SDS011;20673;48.980;8.138;2023-06-14T11:05:55;6.20;;;3.87;;
33993;SDS011;20673;48.980;8.138;2023-06-14T11:08:29;5.80;;;4.03;;
33993;SDS011;20673;48.980;8.138;2023-06-14T11:11:23;6.00;;;4.00;;
33993;SDS011;20673;48.980;8.138;2023-06-14T11:13:55;4.30;;;3.85;;
33993;SDS011;20673;48.980;8.138;2023-06-14T11:16:21;8.35;;;3.90;;
33993;SDS011;20673;48.980;8.138;2023-06-14T11:18:51;5.70;;;4.30;;
33993;SDS011;20673;48.980;8.138;2023-06-14T11:21:18;7.15;;;4.08;;
33993;SDS011;20673;48.980;8.138;2023-06-14T11:23:50;7.42;;;3.62;;
33993;SDS011;20673;48.980;8.138;2023-06-14T11:26:24;5.87;;;4.40;;
33993;SDS011;20673;48.980;8.138;2023-06-14T11:28:55;7.85;;;4.08;;
33993;SDS011;20673;48.980;8.138;2023-06-14T11:33:54;9.18;;;4.60;;
33993;SDS011;20673;48.980;8.138;2023-06-14T11:36:31;10.65;;;4.58;;
33993;SDS011;20673;48.980;8.138;2023-06-14T11:41:36;8.03;;;4.92;;
33993;SDS011;20673;48.980;8.138;2023-06-14T11:44:04;5.22;;;4.55;;
33993;SDS011;20673;48.980;8.138;2023-06-14T11:46:31;8.50;;;4.67;;
33993;SDS011;20673;48.980;8.138;2023-06-14T11:48:58;7.25;;;4.33;;
33993;SDS011;20673;48.980;8.138;2023-06-14T11:51:24;11.05;;;4.45;;
33993;SDS011;20673;48.980;8.138;2023-06-14T11:53:51;8.98;;;4.25;;
33993;SDS011;20673;48.980;8.138;2023-06-14T11:56:17;6.67;;;4.30;;
33993;SDS011;20673;48.980;8.138;2023-06-14T11:58:43;7.03;;;4.37;;
33993;SDS011;20673;48.980;8.138;2023-06-14T12:01:14;5.28;;;4.37;;
33993;SDS011;20673;48.980;8.138;2023-06-14T12:03:48;8.23;;;4.62;;
33993;SDS011;20673;48.980;8.138;2023-06-14T12:06:25;5.95;;;4.53;;
33993;SDS011;20673;48.980;8.138;2023-06-14T12:09:04;5.37;;;3.60;;
33993;SDS011;20673;48.980;8.138;2023-06-14T12:11:34;3.75;;;3.45;;
33993;SDS011;20673;48.980;8.138;2023-06-14T12:14:02;5.37;;;3.83;;
33993;SDS011;20673;48.980;8.138;2023-06-14T12:16:31;5.65;;;4.17;;
33993;SDS011;20673;48.980;8.138;2023-06-14T12:19:09;7.12;;;4.00;;
33993;SDS011;20673;48.980;8.138;2023-06-14T12:24:08;7.55;;;4.03;;
33993;SDS011;20673;48.980;8.138;2023-06-14T12:26:40;4.50;;;3.70;;
33993;SDS011;20673;48.980;8.138;2023-06-14T12:29:07;10.05;;;3.65;;
33993;SDS011;20673;48.980;8.138;2023-06-14T12:31:33;5.70;;;3.35;;
33993;SDS011;20673;48.980;8.138;2023-06-14T12:34:00;8.15;;;3.83;;
33993;SDS011;20673;48.980;8.138;2023-06-14T12:36:26;5.00;;;3.45;;
33993;SDS011;20673;48.980;8.138;2023-06-14T12:38:52;6.92;;;3.50;;
33993;SDS011;20673;48.980;8.138;2023-06-14T12:41:20;5.83;;;3.20;;
33993;SDS011;20673;48.980;8.138;2023-06-14T12:43:47;4.12;;;3.20;;
33993;SDS011;20673;48.980;8.138;2023-06-14T12:46:14;6.72;;;3.30;;
33993;SDS011;20673;48.980;8.138;2023-06-14T12:48:40;3.92;;;3.22;;
33993;SDS011;20673;48.980;8.138;2023-06-14T12:51:06;3.52;;;3.15;;
33993;SDS011;20673;48.980;8.138;2023-06-14T12:53:32;4.72;;;3.52;;
33993;SDS011;20673;48.980;8.138;2023-06-14T12:55:58;3.98;;;3.02;;
33993;SDS011;20673;48.980;8.138;2023-06-14T12:58:25;4.72;;;3.50;;
33993;SDS011;20673;48.980;8.138;2023-06-14T13:00:51;4.33;;;3.40;;
33993;SDS011;20673;48.980;8.138;2023-06-14T13:03:17;7.40;;;3.45;;
33993;SDS011;20673;48.980;8.138;2023-06-14T13:05:44;4.50;;;2.95;;
33993;SDS011;20673;48.980;8.138;2023-06-14T13:08:10;4.80;;;3.25;;
33993;SDS011;20673;48.980;8.138;2023-06-14T13:10:36;3.52;;;3.22;;
33993;SDS011;20673;48.980;8.138;2023-06-14T13:13:02;6.55;;;3.35;;
33993;SDS011;20673;48.980;8.138;2023-06-14T13:15:29;4.20;;;3.27;;
33993;SDS011;20673;48.980;8.138;2023-06-14T13:17:55;4.47;;;3.47;;
33993;SDS011;20673;48.980;8.138;2023-06-14T13:20:21;5.72;;;3.75;;
33993;SDS011;20673;48.980;8.138;2023-06-14T13:22:47;3.87;;;2.65;;
33993;SDS011;20673;48.980;8.138;2023-06-14T13:25:14;5.90;;;3.67;;
33993;SDS011;20673;48.980;8.138;2023-06-14T13:27:41;4.40;;;3.50;;
33993;SDS011;20673;48.980;8.138;2023-06-14T13:30:07;4.30;;;3.10;;
33993;SDS011;20673;48.980;8.138;2023-06-14T13:32:34;5.05;;;3.98;;
33993;SDS011;20673;48.980;8.138;2023-06-14T13:35:01;5.20;;;3.80;;
33993;SDS011;20673;48.980;8.138;2023-06-14T13:37:27;4.50;;;3.37;;
33993;SDS011;20673;48.980;8.138;2023-06-14T13:39:53;4.80;;;3.47;;
33993;SDS011;20673;48.980;8.138;2023-06-14T13:42:19;3.67;;;3.37;;
33993;SDS011;20673;48.980;8.138;2023-06-14T13:44:45;4.37;;;2.98;;
33993;SDS011;20673;48.980;8.138;2023-06-14T13:47:11;6.33;;;3.33;;
33993;SDS011;20673;48.980;8.138;2023-06-14T13:49:38;3.70;;;3.40;;
33993;SDS011;20673;48.980;8.138;2023-06-14T13:52:05;4.37;;;3.45;;
33993;SDS011;20673;48.980;8.138;2023-06-14T13:54:31;5.28;;;3.22;;
33993;SDS011;20673;48.980;8.138;2023-06-14T13:56:57;5.45;;;3.67;;
33993;SDS011;20673;48.980;8.138;2023-06-14T13:59:24;9.45;;;3.27;;
33993;SDS011;20673;48.980;8.138;2023-06-14T14:01:50;4.58;;;3.55;;
33993;SDS011;20673;48.980;8.138;2023-06-14T14:04:16;6.62;;;3.25;;
33993;SDS011;20673;48.980;8.138;2023-06-14T14:06:43;5.33;;;3.12;;
33993;SDS011;20673;48.980;8.138;2023-06-14T14:09:09;4.20;;;3.25;;
33993;SDS011;20673;48.980;8.138;2023-06-14T14:11:35;3.80;;;3.50;;
33993;SDS011;20673;48.980;8.138;2023-06-14T14:14:01;3.62;;;3.33;;
33993;SDS011;20673;48.980;8.138;2023-06-14T14:16:27;4.58;;;3.37;;
33993;SDS011;20673;48.980;8.138;2023-06-14T14:18:55;4.10;;;3.70;;
33993;SDS011;20673;48.980;8.138;2023-06-14T14:21:21;4.92;;;3.30;;
33993;SDS011;20673;48.980;8.138;2023-06-14T14:23:47;8.73;;;3.30;;
33993;SDS011;20673;48.980;8.138;2023-06-14T14:26:14;4.33;;;3.67;;
33993;SDS011;20673;48.980;8.138;2023-06-14T14:28:41;7.08;;;3.25;;
33993;SDS011;20673;48.980;8.138;2023-06-14T14:31:07;4.78;;;3.37;;
33993;SDS011;20673;48.980;8.138;2023-06-14T14:33:33;3.75;;;3.30;;
33993;SDS011;20673;48.980;8.138;2023-06-14T14:36:00;5.92;;;3.00;;
33993;SDS011;20673;48.980;8.138;2023-06-14T14:38:28;4.97;;;3.35;;
33993;SDS011;20673;48.980;8.138;2023-06-14T14:40:54;8.70;;;4.55;;
33993;SDS011;20673;48.980;8.138;2023-06-14T14:43:20;4.97;;;3.52;;
33993;SDS011;20673;48.980;8.138;2023-06-14T14:45:46;4.50;;;3.50;;
33993;SDS011;20673;48.980;8.138;2023-06-14T14:48:12;6.47;;;3.58;;
33993;SDS011;20673;48.980;8.138;2023-06-14T14:50:38;4.78;;;3.50;;
33993;SDS011;20673;48.980;8.138;2023-06-14T14:53:05;4.03;;;3.50;;
33993;SDS011;20673;48.980;8.138;2023-06-14T14:55:32;5.25;;;3.30;;
33993;SDS011;20673;48.980;8.138;2023-06-14T14:58:00;7.60;;;3.30;;
33993;SDS011;20673;48.980;8.138;2023-06-14T15:00:26;3.90;;;3.20;;
33993;SDS011;20673;48.980;8.138;2023-06-14T15:02:52;5.87;;;3.55;;
33993;SDS011;20673;48.980;8.138;2023-06-14T15:05:18;3.80;;;3.42;;
33993;SDS011;20673;48.980;8.138;2023-06-14T15:07:44;8.88;;;3.65;;
33993;SDS011;20673;48.980;8.138;2023-06-14T15:10:11;4.97;;;3.33;;
33993;SDS011;20673;48.980;8.138;2023-06-14T15:12:37;3.98;;;3.58;;